Time;durP1;ratioP1;P1;durP2;ratioP2;P2;SDS_P1;SDS_P2;PMS_P1;PMS_P2;Temp;Humidity;BMP_temperature;BMP_pressure;BME280_temperature;BME280_humidity;BME280_pressure;Samples;Min_cycle;Max_cycle;Signal;HPM_P1;HPM_P2
2023/01/10 01:23:45;773866.00;2.58;1335.58;33702.00;0.11;58.99;;;;;11.10;1.00;;;;;;2495077;55;3500;31
2023/01/10 01:58:43;737418.00;2.46;1272.19;0.00;0.00;0.62;;;;;10.60;1.00;;;;;;2263173;61;1001;-88
2023/01/10 02:01:11;584082.00;1.95;1006.74;6703.00;0.02;12.24;;;;;11.00;1.00;;;;;;2261284;61;1561;-90
2023/01/10 02:03:41;627097.00;2.09;1081.03;0.00;0.00;0.62;;;;;11.30;1.00;;;;;;2261365;61;2014;-88
2023/01/10 02:06:08;603177.00;2.01;1039.71;0.00;0.00;0.62;;;;;11.60;1.00;;;;;;2261363;61;1431;-87
2023/01/10 02:08:36;636838.00;2.12;1097.87;30672.00;0.10;53.75;;;;;11.60;1.00;;;;;;2261242;61;1768;-90
2023/01/10 02:11:09;607794.00;2.03;1047.68;0.00;0.00;0.62;;;;;11.40;1.00;;;;;;2261382;61;918;-91
2023/01/10 03:08:40;501490.00;1.67;864.39;0.00;0.00;0.62;;;;;9.50;1.00;;;;;;2315541;41;3460;-90
2023/01/10 03:11:07;120829288.00;402.76;71462656.00;120020472.00;400.07;70035864.00;;;;;9.70;1.00;;;;;;2491896;56;3701;31
2023/01/10 03:46:16;542815.00;1.81;935.57;0.00;0.00;0.62;;;;;10.30;1.00;;;;;;2497016;41;3470;31
2023/01/10 04:06:16;489508.00;1.63;843.76;0.00;0.00;0.62;;;;;10.00;1.00;;;;;;2501175;55;3789;31
2023/01/10 04:08:43;671302.00;2.24;1157.51;0.00;0.00;0.62;;;;;10.10;1.00;;;;;;2495954;56;3690;31
2023/01/10 04:36:18;608478.00;2.03;1048.86;0.00;0.00;0.62;;;;;9.80;1.00;;;;;;2270259;61;1091;-91
2023/01/10 04:38:45;149439.00;0.50;258.84;0.00;0.00;0.62;;;;;9.80;1.00;;;;;;2268888;61;1774;-92
2023/01/10 04:51:15;662607.00;2.21;1142.45;95156.00;0.32;165.21;;;;;9.80;1.00;;;;;;2266461;61;1050;-89
2023/01/10 04:53:43;554706.00;1.85;956.07;98788.00;0.33;171.48;;;;;9.90;1.00;;;;;;2264829;61;1267;-90
2023/01/10 05:01:19;913297.00;3.04;1579.49;90072.00;0.30;156.43;;;;;9.70;1.00;;;;;;2496005;55;3556;31
2023/01/10 05:11:19;1212288.00;4.04;2112.45;137535.00;0.46;238.32;;;;;9.90;1.00;;;;;;2501234;55;3585;31
2023/01/10 05:51:18;546962.00;1.82;942.72;0.00;0.00;0.62;;;;;11.00;1.00;;;;;;2502419;40;3498;31
2023/01/10 07:26:41;849643.00;2.83;1467.84;16397.00;0.05;29.03;;;;;10.80;1.00;;;;;;2266842;61;1111;-88
2023/01/10 07:29:08;1069327.00;3.56;1855.66;75875.00;0.25;131.91;;;;;10.80;1.00;;;;;;2264999;61;2169;-90
2023/01/10 07:31:35;630438.00;2.10;1086.81;0.00;0.00;0.62;;;;;10.50;1.00;;;;;;2265067;61;1517;-89
2023/01/10 07:34:02;402541.00;1.34;694.17;0.00;0.00;0.62;;;;;10.60;1.00;;;;;;2265091;61;1560;-88
2023/01/10 07:36:29;435640.00;1.45;751.08;0.00;0.00;0.62;;;;;10.40;1.00;;;;;;2265111;61;1046;-89
2023/01/10 07:38:56;522641.00;1.74;900.81;0.00;0.00;0.62;;;;;10.20;1.00;;;;;;2265121;61;911;-90
2023/01/10 07:41:23;550270.00;1.83;948.42;7959.00;0.03;14.41;;;;;9.90;1.00;;;;;;2496880;55;3734;31
2023/01/10 07:51:22;638957.00;2.13;1101.54;0.00;0.00;0.62;;;;;10.20;1.00;;;;;;2266683;61;999;-91
2023/01/10 08:46:25;834537.00;2.78;1441.42;0.00;0.00;0.62;;;;;10.70;1.00;;;;;;2266257;61;1037;-93
2023/01/10 09:44:15;978952.00;3.26;1695.23;94194.00;0.31;163.55;;;;;10.00;1.00;;;;;;2495118;56;3601;31
2023/01/10 10:14:28;654730.00;2.18;1128.82;0.00;0.00;0.62;;;;;10.80;1.00;;;;;;2267123;61;1316;-91
2023/01/10 10:34:38;1127760.00;3.76;1960.14;48175.00;0.16;84.03;;;;;11.20;1.00;;;;;;2267321;61;1196;-91
2023/01/10 10:37:14;682975.00;2.28;1177.73;0.00;0.00;0.62;;;;;11.20;1.00;;;;;;2260838;61;944;-93
2023/01/10 10:39:47;832786.00;2.78;1438.36;0.00;0.00;0.62;;;;;11.30;1.00;;;;;;2260914;61;804;-94
2023/01/10 11:07:29;1377095.00;4.59;2413.91;16401.00;0.05;29.04;;;;;12.30;1.00;;;;;;2266761;61;1004;-90
2023/01/10 11:17:39;1399803.00;4.67;2455.96;146935.00;0.49;254.53;;;;;12.60;1.00;;;;;;2266485;61;1023;-91
2023/01/10 11:20:16;802186.00;2.67;1384.94;83579.00;0.28;145.22;;;;;12.60;1.00;;;;;;2252752;61;875;-93
2023/01/10 12:53:43;633994.00;2.11;1092.95;0.00;0.00;0.62;;;;;11.70;1.00;;;;;;2266413;61;1381;-89
2023/01/10 12:56:15;228934.00;0.76;395.71;0.00;0.00;0.62;;;;;11.70;1.00;;;;;;2264776;61;1608;-90
2023/01/10 12:58:46;202099.00;0.67;349.54;0.00;0.00;0.62;;;;;11.80;1.00;;;;;;2264778;61;1598;-91
2023/01/10 13:01:17;152184.00;0.51;263.57;0.00;0.00;0.62;;;;;11.60;1.00;;;;;;2264867;61;1497;-89
2023/01/10 14:24:31;676748.00;2.26;1166.94;0.00;0.00;0.62;;;;;11.90;1.00;;;;;;855614;41;3462;-88
2023/01/10 14:42:08;509733.00;1.70;878.58;0.00;0.00;0.62;;;;;11.20;1.00;;;;;;2505409;55;3528;31
2023/01/10 15:17:26;393606.00;1.31;678.81;0.00;0.00;0.62;;;;;11.10;1.00;;;;;;2502692;40;3369;31
2023/01/10 15:37:59;248414.00;0.83;429.22;0.00;0.00;0.62;;;;;12.60;1.00;;;;;;759248;60;2223;-89
2023/01/10 15:45:36;529670.00;1.77;912.92;0.00;0.00;0.62;;;;;13.00;1.00;;;;;;2258882;61;1323;-89
2023/01/10 15:58:13;468020.00;1.56;806.78;0.00;0.00;0.62;;;;;12.80;1.00;;;;;;2498821;55;3595;31
2023/01/10 17:48:44;852587.00;2.84;1472.99;85740.00;0.29;148.95;;;;;11.80;1.00;;;;;;2262059;61;1068;-89
2023/01/10 18:06:21;1299467.00;4.33;2271.13;188675.00;0.63;326.43;;;;;11.30;1.00;;;;;;2261830;61;1359;-86
2023/01/10 18:08:48;770972.00;2.57;1330.54;0.00;0.00;0.62;;;;;11.30;1.00;;;;;;2259764;61;1616;-86
2023/01/10 18:11:14;591560.00;1.97;1019.65;0.00;0.00;0.62;;;;;11.20;1.00;;;;;;2259978;61;1113;-87
2023/01/10 18:13:41;801206.00;2.67;1383.23;39596.00;0.13;69.19;;;;;11.40;1.00;;;;;;2259855;61;1400;-86
2023/01/10 18:16:09;586086.00;1.95;1010.20;61202.00;0.20;106.55;;;;;11.50;1.00;;;;;;2259906;61;1004;-87
2023/01/10 18:21:06;560553.00;1.87;966.15;101254.00;0.34;175.74;;;;;11.30;1.00;;;;;;2261318;61;1295;-88
2023/01/10 18:23:34;549191.00;1.83;946.56;93762.00;0.31;162.80;;;;;11.10;1.00;;;;;;2259832;61;1915;-87
2023/01/10 18:26:03;417396.00;1.39;719.71;92497.00;0.31;160.62;;;;;11.00;1.00;;;;;;2259917;61;1658;-87
2023/01/10 18:28:32;603353.00;2.01;1040.01;83883.00;0.28;145.74;;;;;11.10;1.00;;;;;;2260685;61;1085;-90
2023/01/10 18:31:02;413004.00;1.38;712.16;99746.00;0.33;173.13;;;;;11.00;1.00;;;;;;2260766;61;1026;-86
2023/01/10 18:33:30;828358.00;2.76;1430.63;218380.00;0.73;377.56;;;;;11.10;1.00;;;;;;2260606;61;1546;-86
2023/01/10 18:35:57;774317.00;2.58;1336.37;77638.00;0.26;134.96;;;;;11.10;1.00;;;;;;2259864;61;1707;-89
2023/01/10 18:38:24;953208.00;3.18;1649.77;102876.00;0.34;178.54;;;;;10.90;1.00;;;;;;2260452;61;1638;-86
2023/01/10 18:40:52;775822.00;2.59;1338.99;121160.00;0.40;210.08;;;;;11.00;1.00;;;;;;2260505;61;1559;-87
2023/01/10 18:43:19;992110.00;3.31;1718.50;108725.00;0.36;188.63;;;;;11.20;1.00;;;;;;2260278;61;2013;-86
2023/01/10 18:45:47;812687.00;2.71;1403.26;76971.00;0.26;133.80;;;;;11.30;1.00;;;;;;2260575;61;1120;-86
2023/01/10 18:48:17;518057.00;1.73;892.92;96262.00;0.32;167.12;;;;;11.40;1.00;;;;;;2260252;61;1430;-87
2023/01/10 18:50:46;583148.00;1.94;1005.13;98789.00;0.33;171.48;;;;;11.60;1.00;;;;;;2260415;61;1676;-87
2023/01/10 18:53:13;766454.00;2.55;1322.68;93518.00;0.31;162.38;;;;;11.50;1.00;;;;;;2260410;61;1599;-88
2023/01/10 18:55:40;799777.00;2.67;1380.73;161196.00;0.54;279.10;;;;;11.30;1.00;;;;;;2260549;61;1703;-88
2023/01/10 18:58:09;655660.00;2.19;1130.43;102258.00;0.34;177.47;;;;;11.20;1.00;;;;;;2260562;61;960;-88
2023/01/10 19:00:36;875632.00;2.92;1513.36;92253.00;0.31;160.20;;;;;11.20;1.00;;;;;;2260515;61;1171;-87
2023/01/10 19:03:03;518026.00;1.73;892.86;93380.00;0.31;162.14;;;;;11.10;1.00;;;;;;2260387;61;1279;-87
2023/01/10 19:05:30;413249.00;1.38;712.58;93222.00;0.31;161.87;;;;;11.10;1.00;;;;;;2260502;61;2029;-87
2023/01/10 19:07:57;545417.00;1.82;940.06;93519.00;0.31;162.38;;;;;11.10;1.00;;;;;;2260648;61;999;-88
2023/01/10 19:10:24;739732.00;2.47;1276.21;129678.00;0.43;224.77;;;;;11.30;1.00;;;;;;2260572;61;1101;-88
2023/01/10 19:12:53;428721.00;1.43;739.19;112739.00;0.38;195.56;;;;;11.40;1.00;;;;;;2260432;61;1299;-88
2023/01/10 19:15:21;525396.00;1.75;905.56;100271.00;0.33;174.04;;;;;11.30;1.00;;;;;;2260506;61;1152;-87
2023/01/10 19:17:48;454940.00;1.52;784.28;100197.00;0.33;173.91;;;;;11.50;1.00;;;;;;2260483;61;1499;-88
2023/01/10 19:20:16;298599.00;1.00;515.51;91031.00;0.30;158.09;;;;;11.40;1.00;;;;;;2286495;40;3578;-87
2023/01/10 19:22:43;282640.00;0.94;488.08;92629.00;0.31;160.85;;;;;11.40;1.00;;;;;;2262157;61;1688;-87
2023/01/10 19:25:10;508204.00;1.69;875.95;92103.00;0.31;159.94;;;;;11.30;1.00;;;;;;2260235;61;2227;-87
2023/01/10 19:27:37;384070.00;1.28;662.42;94347.00;0.31;163.81;;;;;11.50;1.00;;;;;;2260505;61;1151;-87
2023/01/10 19:30:05;396546.00;1.32;683.87;89134.00;0.30;154.81;;;;;11.40;1.00;;;;;;2260468;61;926;-87
2023/01/10 19:32:37;669572.00;2.23;1154.51;99789.00;0.33;173.21;;;;;11.50;1.00;;;;;;2260389;61;1370;-87
2023/01/10 19:35:04;375779.00;1.25;648.17;108653.00;0.36;188.51;;;;;11.80;1.00;;;;;;2260318;61;1073;-88
2023/01/10 19:37:32;387524.00;1.29;668.36;102409.00;0.34;177.73;;;;;11.90;1.00;;;;;;2260304;61;1679;-87
2023/01/10 19:39:59;276088.00;0.92;476.81;96112.00;0.32;166.86;;;;;11.70;1.00;;;;;;2264915;55;3763;-89
2023/01/10 19:42:26;421909.00;1.41;727.47;96086.00;0.32;166.82;;;;;11.70;1.00;;;;;;2264426;61;1564;-87
2023/01/10 19:49:59;657121.00;2.19;1132.96;108354.00;0.36;187.99;;;;;11.60;1.00;;;;;;2304062;41;2058;-87
2023/01/10 19:57:31;887076.00;2.96;1533.43;95091.00;0.32;165.10;;;;;11.50;1.00;;;;;;1546640;60;3310;-87
2023/01/10 19:59:59;840304.00;2.80;1451.51;104942.00;0.35;182.10;;;;;11.70;1.00;;;;;;2260322;61;1441;-89
2023/01/10 20:02:26;893639.00;2.98;1544.95;87624.00;0.29;152.20;;;;;11.80;1.00;;;;;;2300818;56;3776;-85
2023/01/10 20:04:53;705525.00;2.35;1216.82;130223.00;0.43;225.71;;;;;11.80;1.00;;;;;;2264665;55;3767;-87
2023/01/10 20:07:26;827900.00;2.76;1429.83;106416.00;0.35;184.65;;;;;11.90;1.00;;;;;;2266081;55;3723;-89
2023/01/10 20:09:56;848590.00;2.83;1466.00;79148.00;0.26;137.57;;;;;11.80;1.00;;;;;;2264105;61;1773;-87
2023/01/10 20:12:23;736412.00;2.45;1270.44;101494.00;0.34;176.15;;;;;11.70;1.00;;;;;;2262655;61;1685;-86
2023/01/10 20:14:51;757875.00;2.53;1307.75;108823.00;0.36;188.80;;;;;11.70;1.00;;;;;;2260239;61;2178;-88
2023/01/10 20:17:18;772379.00;2.57;1332.99;80264.00;0.27;139.49;;;;;12.00;1.00;;;;;;2260251;61;1115;-88
2023/01/10 20:19:46;831210.00;2.77;1435.61;139371.00;0.46;241.49;;;;;11.90;1.00;;;;;;2260256;61;897;-88
2023/01/10 20:22:13;760833.00;2.54;1312.90;89335.00;0.30;155.16;;;;;12.10;1.00;;;;;;2260251;61;1414;-88
2023/01/10 20:24:42;631890.00;2.11;1089.32;89221.00;0.30;154.96;;;;;12.00;1.00;;;;;;2260159;61;2002;-88
2023/01/10 20:32:13;1061772.00;3.54;1842.19;19914.00;0.07;35.12;;;;;11.90;1.00;;;;;;2264738;55;3646;-86
2023/01/10 20:34:42;668550.00;2.23;1152.74;0.00;0.00;0.62;;;;;12.20;1.00;;;;;;2269948;41;3580;-86
2023/01/10 20:39:42;642446.00;2.14;1107.57;32894.00;0.11;57.59;;;;;12.40;1.00;;;;;;2261677;61;1330;-88
2023/01/10 20:42:09;588253.00;1.96;1013.94;0.00;0.00;0.62;;;;;12.60;1.00;;;;;;2259982;61;1473;-89
2023/01/10 20:47:07;583477.00;1.94;1005.70;0.00;0.00;0.62;;;;;12.40;1.00;;;;;;2262244;61;1338;-88
2023/01/10 20:49:36;435927.00;1.45;751.58;41346.00;0.14;72.22;;;;;12.20;1.00;;;;;;2259980;61;1731;-87
2023/01/10 20:52:03;412513.00;1.38;711.32;0.00;0.00;0.62;;;;;12.30;1.00;;;;;;2260058;61;1250;-88
2023/01/10 20:54:29;291472.00;0.97;503.26;0.00;0.00;0.62;;;;;12.20;1.00;;;;;;2260217;61;1658;-87
2023/01/10 20:56:58;613053.00;2.04;1056.76;9129.00;0.03;16.44;;;;;12.10;1.00;;;;;;2260046;61;1106;-87
2023/01/10 20:59:27;498405.00;1.66;859.08;0.00;0.00;0.62;;;;;12.30;1.00;;;;;;2260241;61;1597;-88
2023/01/10 21:01:59;495042.00;1.65;853.29;41484.00;0.14;72.46;;;;;12.30;1.00;;;;;;2260093;61;1308;-87
2023/01/10 21:04:26;270746.00;0.90;467.63;0.00;0.00;0.62;;;;;12.30;1.00;;;;;;2260240;61;2002;-88
2023/01/10 21:06:53;182194.00;0.61;315.27;0.00;0.00;0.62;;;;;12.30;1.00;;;;;;2260200;61;1061;-89
2023/01/10 21:09:20;243170.00;0.81;420.20;0.00;0.00;0.62;;;;;12.30;1.00;;;;;;2259961;61;1064;-87
2023/01/10 21:11:47;185637.00;0.62;321.20;0.00;0.00;0.62;;;;;12.20;1.00;;;;;;2259936;61;1281;-88
2023/01/10 21:14:18;231477.00;0.77;400.09;0.00;0.00;0.62;;;;;12.30;1.00;;;;;;2263128;55;3808;-87
2023/01/10 21:16:45;125681.00;0.42;217.88;0.00;0.00;0.62;;;;;12.10;1.00;;;;;;2264068;61;1155;-88
2023/01/10 21:19:13;163273.00;0.54;282.68;0.00;0.00;0.62;;;;;12.30;1.00;;;;;;2263792;61;1710;-88
2023/01/10 21:21:41;171669.00;0.57;297.14;0.00;0.00;0.62;;;;;12.50;1.00;;;;;;2263604;61;1391;-87
2023/01/10 21:24:09;313128.00;1.04;540.49;0.00;0.00;0.62;;;;;12.60;1.00;;;;;;2260038;61;1912;-86
2023/01/10 21:26:36;218978.00;0.73;378.59;0.00;0.00;0.62;;;;;12.70;1.00;;;;;;2259919;61;1126;-87
2023/01/10 21:31:41;391944.00;1.31;675.96;26418.00;0.09;46.38;;;;;12.90;1.00;;;;;;1960294;60;2064;-88
2023/01/10 21:39:06;235119.00;0.78;406.36;0.00;0.00;0.62;;;;;13.00;1.00;;;;;;2262300;61;1334;-88
2023/01/10 21:44:19;171921.00;0.57;297.58;0.00;0.00;0.62;;;;;12.90;1.00;;;;;;2259987;61;1983;-89
2023/01/10 21:51:51;180320.00;0.60;312.04;0.00;0.00;0.62;;;;;13.10;1.00;;;;;;2264754;61;1400;-87
2023/01/10 21:54:18;251862.00;0.84;435.15;23607.00;0.08;41.52;;;;;13.20;1.00;;;;;;2259959;61;1131;-90
2023/01/10 21:56:45;65641.00;0.22;114.23;0.00;0.00;0.62;;;;;13.00;1.00;;;;;;2259905;61;1747;-88
2023/01/10 22:01:42;258828.00;0.86;447.13;0.00;0.00;0.62;;;;;12.70;1.00;;;;;;2269621;40;3496;-87
2023/01/10 22:06:38;346590.00;1.16;598.00;0.00;0.00;0.62;;;;;12.60;1.00;;;;;;2266289;61;1182;-88
2023/01/10 22:09:06;150115.00;0.50;260.01;0.00;0.00;0.62;;;;;12.60;1.00;;;;;;2264285;61;1253;-89
2023/01/10 22:11:33;249761.00;0.83;431.54;0.00;0.00;0.62;;;;;12.50;1.00;;;;;;2264445;61;1784;-86
2023/01/10 22:14:01;297552.00;0.99;513.71;24867.00;0.08;43.70;;;;;12.40;1.00;;;;;;2266325;56;3792;-88
2023/01/10 22:16:28;180168.00;0.60;311.78;0.00;0.00;0.62;;;;;12.50;1.00;;;;;;2264479;61;1006;-89
2023/01/10 22:18:54;200198.00;0.67;346.26;0.00;0.00;0.62;;;;;12.70;1.00;;;;;;2264418;61;1000;-87
2023/01/10 22:21:21;268808.00;0.90;464.29;15115.00;0.05;26.81;;;;;12.90;1.00;;;;;;2264378;61;1152;-87
2023/01/10 22:23:48;361024.00;1.20;622.81;0.00;0.00;0.62;;;;;12.70;1.00;;;;;;2264397;61;1706;-88
2023/01/10 22:26:17;243415.00;0.81;420.63;0.00;0.00;0.62;;;;;12.80;1.00;;;;;;2264354;61;1940;-89
2023/01/10 22:28:44;118130.00;0.39;204.86;0.00;0.00;0.62;;;;;12.90;1.00;;;;;;2264460;61;1557;-89
2023/01/10 22:31:11;51054.00;0.17;89.01;0.00;0.00;0.62;;;;;12.90;1.00;;;;;;2264422;61;1733;-88
2023/01/10 22:33:39;264069.00;0.88;456.15;0.00;0.00;0.62;;;;;12.80;1.00;;;;;;2264371;61;1321;-89
2023/01/10 22:36:07;122697.00;0.41;212.73;0.00;0.00;0.62;;;;;13.10;1.00;;;;;;2264528;61;1678;-88
2023/01/10 22:38:37;171962.00;0.57;297.65;0.00;0.00;0.62;;;;;13.20;1.00;;;;;;2264474;61;907;-88
2023/01/10 22:46:15;384464.00;1.28;663.10;8394.00;0.03;15.17;;;;;13.20;1.00;;;;;;2262294;61;1970;-89
2023/01/10 22:48:42;380200.00;1.27;655.77;0.00;0.00;0.62;;;;;13.10;1.00;;;;;;2260410;61;944;-88
2023/01/10 22:51:09;270895.00;0.90;467.88;0.00;0.00;0.62;;;;;13.20;1.00;;;;;;2260174;61;1078;-90
2023/01/10 22:53:36;224741.00;0.75;388.50;0.00;0.00;0.62;;;;;13.00;1.00;;;;;;2278912;55;3780;-87
2023/01/10 22:56:05;208812.00;0.70;361.09;0.00;0.00;0.62;;;;;13.00;1.00;;;;;;2264310;61;1733;-87
2023/01/10 22:58:33;152887.00;0.51;264.78;0.00;0.00;0.62;;;;;13.00;1.00;;;;;;2264357;61;1652;-88
2023/01/10 23:01:03;277186.00;0.92;478.70;0.00;0.00;0.62;;;;;13.30;1.00;;;;;;2264305;61;1617;-87
2023/01/10 23:06:01;282988.00;0.94;488.67;0.00;0.00;0.62;;;;;13.20;1.00;;;;;;2257828;61;1969;-87
2023/01/10 23:10:57;344119.00;1.15;593.75;0.00;0.00;0.62;;;;;13.50;1.00;;;;;;2262167;61;1405;-88
2023/01/10 23:13:25;273439.00;0.91;472.26;0.00;0.00;0.62;;;;;13.30;1.00;;;;;;2260224;61;1284;-89
2023/01/10 23:15:56;102437.00;0.34;177.78;0.00;0.00;0.62;;;;;13.20;1.00;;;;;;2260129;61;1139;-87
2023/01/10 23:18:23;219504.00;0.73;379.49;0.00;0.00;0.62;;;;;13.20;1.00;;;;;;2260337;61;1016;-87
2023/01/10 23:20:50;229624.00;0.77;396.90;0.00;0.00;0.62;;;;;13.10;1.00;;;;;;2260296;61;1035;-88
2023/01/10 23:23:19;124866.00;0.42;216.48;0.00;0.00;0.62;;;;;13.10;1.00;;;;;;2260308;61;1341;-87
2023/01/10 23:26:00;192384.00;0.64;332.81;0.00;0.00;0.62;;;;;12.90;1.00;;;;;;2260194;61;1923;-88
2023/01/10 23:28:26;218630.00;0.73;377.99;0.00;0.00;0.62;;;;;12.70;1.00;;;;;;2260139;61;1744;-88
2023/01/10 23:30:53;223310.00;0.74;386.04;0.00;0.00;0.62;;;;;12.80;1.00;;;;;;2260099;61;1764;-88
2023/01/10 23:33:20;107482.00;0.36;186.48;0.00;0.00;0.62;;;;;12.80;1.00;;;;;;2260214;61;1408;-87
2023/01/10 23:35:47;388412.00;1.29;669.89;0.00;0.00;0.62;;;;;12.50;1.00;;;;;;2260331;61;1081;-88
2023/01/10 23:38:14;319499.00;1.06;551.44;0.00;0.00;0.62;;;;;12.50;1.00;;;;;;2260199;61;1088;-88
2023/01/10 23:40:43;193705.00;0.65;335.09;0.00;0.00;0.62;;;;;12.50;1.00;;;;;;2260164;61;1595;-90
2023/01/10 23:43:10;328053.00;1.09;566.14;0.00;0.00;0.62;;;;;12.40;1.00;;;;;;2260078;61;1579;-87
2023/01/10 23:45:37;310683.00;1.04;536.28;0.00;0.00;0.62;;;;;12.50;1.00;;;;;;2260135;61;1986;-89
2023/01/10 23:48:05;253309.00;0.84;437.64;0.00;0.00;0.62;;;;;12.50;1.00;;;;;;2260102;61;1717;-88
2023/01/10 23:50:32;177950.00;0.59;307.96;0.00;0.00;0.62;;;;;12.60;1.00;;;;;;2260211;61;1648;-88
2023/01/10 23:53:00;195955.00;0.65;338.96;0.00;0.00;0.62;;;;;12.50;1.00;;;;;;2259945;61;1277;-88
2023/01/10 23:55:26;273283.00;0.91;471.99;0.00;0.00;0.62;;;;;12.80;1.00;;;;;;2260167;61;1036;-88
2023/01/10 23:57:55;204363.00;0.68;353.43;0.00;0.00;0.62;;;;;13.00;1.00;;;;;;2260172;61;1123;-88
